Time;durP1;ratioP1;P1;durP2;ratioP2;P2;SDS_P1;SDS_P2;PMS_P1;PMS_P2;Temp;Humidity;BMP_temperature;BMP_pressure;BME280_temperature;BME280_humidity;BME280_pressure;Samples;Min_cycle;Max_cycle;Signal;HPM_P1;HPM_P2
2022/10/19 00:02:03;;;;;;;;;10.75;10.50;;;;;;;;5127376;27;8842;-82
2022/10/19 00:04:30;;;;;;;;;8.50;8.50;;;;;;;;5110311;27;8876;-83
2022/10/19 00:06:58;;;;;;;;;10.75;7.00;;;;;;;;5113338;27;8854;-83
2022/10/19 00:09:26;;;;;;;;;5.75;5.75;;;;;;;;5110487;27;8899;-83
2022/10/19 00:11:55;;;;;;;;;7.50;7.50;;;;;;;;5088269;27;8855;-83
2022/10/19 00:14:24;;;;;;;;;14.00;11.75;;;;;;;;5082080;27;8862;-84
2022/10/19 00:16:53;;;;;;;;;11.25;11.25;;;;;;;;5065345;27;8885;-83
2022/10/19 00:19:23;;;;;;;;;12.00;12.00;;;;;;;;5056273;27;8936;-83
2022/10/19 00:21:50;;;;;;;;;12.00;10.75;;;;;;;;5066574;27;8839;-83
2022/10/19 00:24:18;;;;;;;;;11.50;10.50;;;;;;;;5070232;27;8961;-83
2022/10/19 00:26:47;;;;;;;;;14.00;11.00;;;;;;;;5082848;27;8830;-82
2022/10/19 00:29:17;;;;;;;;;9.75;9.75;;;;;;;;5035310;28;8942;-83
2022/10/19 00:31:48;;;;;;;;;14.50;13.25;;;;;;;;5049729;27;8877;-84
2022/10/19 00:34:16;;;;;;;;;13.00;11.50;;;;;;;;5031300;27;8990;-83
2022/10/19 00:36:43;;;;;;;;;15.25;15.25;;;;;;;;5055692;27;8873;-83
2022/10/19 00:39:13;;;;;;;;;12.00;12.00;;;;;;;;5052531;27;8847;-82
2022/10/19 00:41:41;;;;;;;;;13.50;12.00;;;;;;;;5058899;27;8852;-82
2022/10/19 00:44:47;;;;;;;;;14.00;14.00;;;;;;;;5039888;27;8864;-82
2022/10/19 00:47:17;;;;;;;;;13.00;12.50;;;;;;;;5053606;27;8838;-84
2022/10/19 00:49:46;;;;;;;;;12.75;12.75;;;;;;;;5044173;27;8850;-84
2022/10/19 00:52:16;;;;;;;;;13.00;11.25;;;;;;;;5034875;27;8858;-83
2022/10/19 00:54:44;;;;;;;;;14.50;14.50;;;;;;;;5128242;27;9018;-82
2022/10/19 00:57:13;;;;;;;;;14.75;13.25;;;;;;;;5034698;28;8819;-82
2022/10/19 00:59:42;;;;;;;;;8.75;8.75;;;;;;;;5040008;28;9607;-81
2022/10/19 01:02:10;;;;;;;;;15.00;13.50;;;;;;;;5048991;27;8852;-82
2022/10/19 01:04:42;;;;;;;;;17.50;14.25;;;;;;;;5049111;28;8858;-83
2022/10/19 01:07:10;;;;;;;;;14.75;14.75;;;;;;;;5070514;27;8838;-83
2022/10/19 01:09:38;;;;;;;;;16.25;13.50;;;;;;;;5045055;28;8855;-82
2022/10/19 01:12:11;;;;;;;;;13.50;13.25;;;;;;;;5057741;27;8871;-83
2022/10/19 01:14:49;;;;;;;;;14.75;14.75;;;;;;;;5035452;28;8947;-84
2022/10/19 01:17:28;;;;;;;;;13.75;13.75;;;;;;;;5020508;28;8883;-84
2022/10/19 01:20:31;;;;;;;;;13.25;13.25;;;;;;;;5026781;28;8841;-84
2022/10/19 01:23:11;;;;;;;;;16.50;16.50;;;;;;;;5029795;28;8867;-83
2022/10/19 01:25:47;;;;;;;;;15.25;14.75;;;;;;;;5025799;28;8859;-82
2022/10/19 01:28:33;;;;;;;;;13.50;13.50;;;;;;;;5027938;28;8959;-82
2022/10/19 01:31:06;;;;;;;;;15.50;12.25;;;;;;;;5027416;28;8849;-83
2022/10/19 01:33:43;;;;;;;;;15.50;14.50;;;;;;;;5113617;27;8905;-84
2022/10/19 01:36:19;;;;;;;;;16.75;15.50;;;;;;;;5027143;28;8901;-82
2022/10/19 01:38:52;;;;;;;;;14.00;13.25;;;;;;;;5118053;27;8983;-82
2022/10/19 01:41:25;;;;;;;;;14.00;13.00;;;;;;;;5030228;28;8858;-84
2022/10/19 01:43:59;;;;;;;;;14.00;14.00;;;;;;;;5040536;28;8895;-83
2022/10/19 01:46:32;;;;;;;;;13.00;13.00;;;;;;;;5031456;28;8826;-83
2022/10/19 01:49:04;;;;;;;;;16.75;16.75;;;;;;;;5031356;28;8856;-84
2022/10/19 01:51:34;;;;;;;;;15.00;14.75;;;;;;;;5100313;27;8885;-83
2022/10/19 01:54:05;;;;;;;;;14.75;14.75;;;;;;;;5030720;28;8822;-83
2022/10/19 01:56:35;;;;;;;;;14.75;13.00;;;;;;;;5031302;28;8990;-83
2022/10/19 01:59:05;;;;;;;;;11.50;11.50;;;;;;;;5121465;27;8853;-82
2022/10/19 02:01:36;;;;;;;;;15.00;15.00;;;;;;;;5031159;28;8861;-83
2022/10/19 02:04:04;;;;;;;;;15.00;13.00;;;;;;;;5030414;28;8864;-82
2022/10/19 02:06:32;;;;;;;;;19.25;14.50;;;;;;;;5031271;28;8880;-82
2022/10/19 02:09:00;;;;;;;;;11.25;11.25;;;;;;;;5017994;28;8847;-82
2022/10/19 02:11:28;;;;;;;;;16.75;15.00;;;;;;;;5043194;27;8988;-82
2022/10/19 02:13:58;;;;;;;;;17.25;15.25;;;;;;;;5031957;27;8863;-82
2022/10/19 02:16:30;;;;;;;;;14.00;14.00;;;;;;;;5024113;28;8840;-82
2022/10/19 02:19:01;;;;;;;;;15.00;15.00;;;;;;;;5025321;28;9006;-82
2022/10/19 02:21:28;;;;;;;;;15.50;14.00;;;;;;;;5026671;28;8833;-83
2022/10/19 02:23:56;;;;;;;;;13.75;13.00;;;;;;;;5023292;28;8884;-82
2022/10/19 02:26:24;;;;;;;;;13.00;13.00;;;;;;;;5025635;28;8840;-81
2022/10/19 02:28:52;;;;;;;;;0.50;0.50;;;;;;;;5026961;28;8853;-82
2022/10/19 02:31:19;;;;;;;;;15.00;14.50;;;;;;;;5027868;28;8926;-81
2022/10/19 02:33:58;;;;;;;;;23.00;19.00;;;;;;;;5020294;28;8841;-82
2022/10/19 02:36:27;;;;;;;;;16.50;15.00;;;;;;;;5021625;28;8961;-81
2022/10/19 02:38:55;;;;;;;;;15.25;14.25;;;;;;;;5019292;28;8858;-82
2022/10/19 02:41:26;;;;;;;;;14.50;14.50;;;;;;;;5026264;28;8934;-81
2022/10/19 02:43:58;;;;;;;;;14.50;14.25;;;;;;;;5019437;28;8848;-81
2022/10/19 02:46:29;;;;;;;;;19.25;15.25;;;;;;;;5027303;28;8853;-81
2022/10/19 02:48:58;;;;;;;;;16.25;15.75;;;;;;;;5025499;28;8882;-82
2022/10/19 02:51:31;;;;;;;;;12.00;12.00;;;;;;;;5025893;28;8816;-82
2022/10/19 02:53:59;;;;;;;;;14.50;13.00;;;;;;;;5026663;28;8853;-83
2022/10/19 02:56:26;;;;;;;;;16.25;15.75;;;;;;;;5034855;28;8845;-83
2022/10/19 02:58:53;;;;;;;;;18.50;16.50;;;;;;;;5055847;28;9609;-82
2022/10/19 03:01:21;;;;;;;;;15.75;14.50;;;;;;;;5010713;28;8863;-82
2022/10/19 03:03:51;;;;;;;;;16.00;16.00;;;;;;;;5020659;28;8978;-82
2022/10/19 03:06:18;;;;;;;;;18.75;17.25;;;;;;;;5022708;28;8856;-82
2022/10/19 03:08:50;;;;;;;;;17.00;15.00;;;;;;;;5112017;27;8890;-82
2022/10/19 03:11:20;;;;;;;;;14.75;14.75;;;;;;;;5039167;27;8939;-81
2022/10/19 03:13:50;;;;;;;;;16.50;16.50;;;;;;;;5049125;28;8967;-82
2022/10/19 03:16:20;;;;;;;;;15.25;13.50;;;;;;;;5113145;27;8829;-83
2022/10/19 03:18:49;;;;;;;;;17.75;17.75;;;;;;;;5045410;27;8837;-84
2022/10/19 03:21:18;;;;;;;;;15.00;15.00;;;;;;;;5054006;27;8844;-82
2022/10/19 03:23:47;;;;;;;;;18.50;18.00;;;;;;;;5037204;27;8847;-83
2022/10/19 03:26:21;;;;;;;;;16.75;16.75;;;;;;;;5041248;27;8807;-83
2022/10/19 03:28:49;;;;;;;;;15.00;15.00;;;;;;;;5037593;27;8842;-84
2022/10/19 03:31:16;;;;;;;;;14.25;14.25;;;;;;;;5044075;27;8985;-83
2022/10/19 03:33:44;;;;;;;;;16.25;15.75;;;;;;;;5041362;27;8854;-83
2022/10/19 03:36:17;;;;;;;;;15.00;15.00;;;;;;;;5038041;27;8900;-81
2022/10/19 03:38:45;;;;;;;;;18.75;17.25;;;;;;;;5027832;27;8888;-83
2022/10/19 03:41:13;;;;;;;;;14.25;14.25;;;;;;;;5019846;27;8834;-83
2022/10/19 03:43:40;;;;;;;;;24.75;20.75;;;;;;;;5039231;27;8988;-83
2022/10/19 03:46:08;;;;;;;;;21.50;19.50;;;;;;;;5041721;27;8913;-82
2022/10/19 03:48:37;;;;;;;;;18.00;17.00;;;;;;;;5043157;27;8837;-83
2022/10/19 03:51:07;;;;;;;;;19.25;19.00;;;;;;;;5053117;27;8866;-82
2022/10/19 03:53:35;;;;;;;;;19.00;18.00;;;;;;;;5035578;28;8863;-82
2022/10/19 03:56:06;;;;;;;;;11.75;11.75;;;;;;;;5050590;27;8830;-83
2022/10/19 03:58:35;;;;;;;;;20.75;20.50;;;;;;;;5050371;28;8862;-83
2022/10/19 04:01:08;;;;;;;;;26.50;26.50;;;;;;;;5033702;27;8869;-83
2022/10/19 04:03:35;;;;;;;;;23.50;21.25;;;;;;;;5067150;27;8868;-83
2022/10/19 04:06:04;;;;;;;;;23.00;21.25;;;;;;;;5056715;27;8969;-83
2022/10/19 04:08:32;;;;;;;;;20.50;20.50;;;;;;;;5048097;27;8858;-83
2022/10/19 04:11:01;;;;;;;;;22.75;22.75;;;;;;;;5041605;27;8837;-83
2022/10/19 04:13:30;;;;;;;;;22.75;20.75;;;;;;;;5016902;27;8867;-83
2022/10/19 04:15:58;;;;;;;;;19.00;19.00;;;;;;;;5064988;27;8850;-83
2022/10/19 04:18:26;;;;;;;;;20.75;20.00;;;;;;;;5033496;27;9583;-82
2022/10/19 04:20:57;;;;;;;;;21.75;20.50;;;;;;;;5030488;28;8828;-82
2022/10/19 04:23:26;;;;;;;;;18.25;18.25;;;;;;;;5039393;27;8860;-83
2022/10/19 04:25:59;;;;;;;;;22.50;22.50;;;;;;;;5038556;27;8992;-82
2022/10/19 04:28:29;;;;;;;;;20.25;20.25;;;;;;;;5038980;27;8856;-81
2022/10/19 04:30:57;;;;;;;;;24.75;24.00;;;;;;;;5036885;27;8846;-83
2022/10/19 04:33:24;;;;;;;;;21.00;21.00;;;;;;;;5044428;27;8861;-83
2022/10/19 04:35:59;;;;;;;;;19.50;19.00;;;;;;;;5020223;28;8825;-83
2022/10/19 04:38:26;;;;;;;;;26.25;21.25;;;;;;;;5027493;28;9672;-82
2022/10/19 04:40:54;;;;;;;;;19.75;19.75;;;;;;;;5013846;28;9003;-82
2022/10/19 04:43:25;;;;;;;;;22.75;22.75;;;;;;;;5020717;28;8922;-82
2022/10/19 04:45:55;;;;;;;;;25.75;24.25;;;;;;;;5027795;27;8868;-82
2022/10/19 04:48:23;;;;;;;;;17.25;17.25;;;;;;;;5036481;28;8851;-79
2022/10/19 04:50:54;;;;;;;;;26.50;24.75;;;;;;;;5002378;28;8893;-83
2022/10/19 04:53:24;;;;;;;;;27.00;24.75;;;;;;;;5028946;28;8856;-82
2022/10/19 04:55:52;;;;;;;;;24.50;24.25;;;;;;;;5035402;28;8896;-79
2022/10/19 04:58:19;;;;;;;;;25.75;24.00;;;;;;;;5036924;27;8913;-79
2022/10/19 05:00:47;;;;;;;;;26.25;24.50;;;;;;;;5027010;27;8914;-78
2022/10/19 05:03:17;;;;;;;;;25.50;23.25;;;;;;;;5031143;27;8975;-77
2022/10/19 05:05:44;;;;;;;;;23.50;23.50;;;;;;;;5035410;28;8862;-78
2022/10/19 05:08:12;;;;;;;;;27.25;26.00;;;;;;;;5029659;27;9659;-78
2022/10/19 05:10:40;;;;;;;;;25.25;24.50;;;;;;;;5035900;28;8859;-77
2022/10/19 05:13:07;;;;;;;;;21.00;20.50;;;;;;;;5041917;27;8875;-78
2022/10/19 05:15:35;;;;;;;;;23.00;22.00;;;;;;;;5033031;27;8843;-78
2022/10/19 05:18:02;;;;;;;;;23.50;22.25;;;;;;;;5068952;27;8968;-77
2022/10/19 05:20:31;;;;;;;;;25.50;25.00;;;;;;;;5063621;27;8826;-78
2022/10/19 05:22:59;;;;;;;;;22.25;22.25;;;;;;;;5025854;27;8862;-78
2022/10/19 05:25:26;;;;;;;;;23.00;21.75;;;;;;;;5032212;28;8848;-77
2022/10/19 05:27:54;;;;;;;;;23.75;23.25;;;;;;;;5037549;27;8852;-77
2022/10/19 05:30:22;;;;;;;;;19.25;17.75;;;;;;;;5056482;27;8852;-78
2022/10/19 05:32:52;;;;;;;;;27.75;24.25;;;;;;;;5040988;27;8874;-78
2022/10/19 05:35:22;;;;;;;;;28.25;25.00;;;;;;;;5039776;28;8801;-78
2022/10/19 05:37:54;;;;;;;;;25.50;23.75;;;;;;;;5035218;27;8874;-85
2022/10/19 05:40:21;;;;;;;;;23.25;23.25;;;;;;;;5019657;28;9863;-84
2022/10/19 05:42:50;;;;;;;;;26.75;25.75;;;;;;;;5025222;27;8971;-84
2022/10/19 05:45:20;;;;;;;;;23.75;23.25;;;;;;;;5025117;28;9701;-82
2022/10/19 05:47:48;;;;;;;;;23.75;22.50;;;;;;;;4985265;28;8883;-81
2022/10/19 05:50:16;;;;;;;;;26.25;24.50;;;;;;;;5027533;27;8848;-79
2022/10/19 05:52:43;;;;;;;;;27.00;19.75;;;;;;;;5038926;27;8838;-79
2022/10/19 05:55:13;;;;;;;;;29.75;26.75;;;;;;;;5028285;27;8970;-80
2022/10/19 05:57:40;;;;;;;;;28.00;25.75;;;;;;;;5025242;27;8860;-81
2022/10/19 06:00:09;;;;;;;;;20.25;18.25;;;;;;;;5026828;28;9015;-81
2022/10/19 06:02:37;;;;;;;;;25.50;24.75;;;;;;;;5036138;27;8899;-81
2022/10/19 06:05:05;;;;;;;;;23.25;22.00;;;;;;;;5006607;28;8875;-82
2022/10/19 06:07:32;;;;;;;;;22.00;20.50;;;;;;;;5041523;27;8890;-79
2022/10/19 06:10:00;;;;;;;;;27.50;25.75;;;;;;;;5045186;27;8992;-80
2022/10/19 06:12:30;;;;;;;;;23.00;22.75;;;;;;;;5100818;27;8849;-80
2022/10/19 06:14:58;;;;;;;;;18.25;18.25;;;;;;;;5113268;27;8874;-79
2022/10/19 06:17:27;;;;;;;;;20.25;20.25;;;;;;;;5126067;27;9637;-75
2022/10/19 06:19:55;;;;;;;;;23.50;22.50;;;;;;;;5121086;27;8807;-74
2022/10/19 06:22:22;;;;;;;;;20.50;20.50;;;;;;;;5124126;27;9130;-74
2022/10/19 06:24:50;;;;;;;;;22.75;21.00;;;;;;;;5123214;27;9643;-73
2022/10/19 06:27:17;;;;;;;;;22.50;22.00;;;;;;;;5122370;27;8897;-73
2022/10/19 06:29:46;;;;;;;;;15.25;13.25;;;;;;;;5127404;27;8860;-71
2022/10/19 06:32:14;;;;;;;;;23.00;21.25;;;;;;;;5105812;27;9026;-71
2022/10/19 06:34:41;;;;;;;;;19.00;19.00;;;;;;;;5110853;27;8841;-72
2022/10/19 06:37:09;;;;;;;;;25.25;24.25;;;;;;;;5124123;27;8866;-72
2022/10/19 06:39:36;;;;;;;;;24.75;22.25;;;;;;;;5127856;27;8838;-69
2022/10/19 06:42:03;;;;;;;;;20.00;19.00;;;;;;;;5122598;27;8875;-71
2022/10/19 06:44:31;;;;;;;;;22.00;22.00;;;;;;;;5128515;27;8838;-71
2022/10/19 06:47:00;;;;;;;;;22.50;22.00;;;;;;;;5107583;27;8831;-71
2022/10/19 06:49:27;;;;;;;;;22.75;22.50;;;;;;;;5121785;27;8845;-72
2022/10/19 06:51:54;;;;;;;;;23.50;21.75;;;;;;;;5087822;27;8856;-72
2022/10/19 06:54:24;;;;;;;;;15.75;15.75;;;;;;;;5115338;27;8838;-71
2022/10/19 06:56:51;;;;;;;;;27.00;22.75;;;;;;;;5122989;27;8860;-73
2022/10/19 06:59:19;;;;;;;;;27.75;24.00;;;;;;;;5105275;27;8849;-72
2022/10/19 07:01:46;;;;;;;;;22.00;22.00;;;;;;;;5109916;27;8888;-72
2022/10/19 07:04:15;;;;;;;;;20.25;20.25;;;;;;;;5108911;27;8954;-72
2022/10/19 07:06:43;;;;;;;;;22.00;18.50;;;;;;;;5121011;27;8842;-72
2022/10/19 07:09:10;;;;;;;;;9.50;9.50;;;;;;;;5123616;27;8860;-73
2022/10/19 07:11:38;;;;;;;;;24.00;23.00;;;;;;;;5082953;27;8894;-72
2022/10/19 07:14:05;;;;;;;;;23.75;23.75;;;;;;;;5024422;27;8861;-72
2022/10/19 07:16:32;;;;;;;;;19.75;19.75;;;;;;;;5041876;27;8855;-72
2022/10/19 07:19:01;;;;;;;;;22.50;20.25;;;;;;;;5049617;27;8834;-72
2022/10/19 07:21:29;;;;;;;;;23.00;23.00;;;;;;;;5045052;27;8844;-75
2022/10/19 07:23:57;;;;;;;;;23.75;22.50;;;;;;;;5035171;27;8850;-73
2022/10/19 07:26:29;;;;;;;;;22.75;21.25;;;;;;;;5022986;28;9625;-73
2022/10/19 07:28:57;;;;;;;;;24.25;21.50;;;;;;;;5026097;27;8872;-76
2022/10/19 07:31:26;;;;;;;;;26.50;23.75;;;;;;;;5031865;27;8834;-74
2022/10/19 07:33:54;;;;;;;;;21.25;19.00;;;;;;;;5033162;27;8861;-77
2022/10/19 07:36:22;;;;;;;;;22.25;22.25;;;;;;;;5026989;27;8848;-76
2022/10/19 07:38:52;;;;;;;;;26.75;24.75;;;;;;;;5030052;27;8856;-77
2022/10/19 07:41:21;;;;;;;;;21.50;21.50;;;;;;;;5017382;28;9664;-76
2022/10/19 07:43:49;;;;;;;;;22.75;20.00;;;;;;;;5012668;28;8841;-75
2022/10/19 07:46:18;;;;;;;;;22.75;19.75;;;;;;;;5031232;27;8836;-73
2022/10/19 07:48:46;;;;;;;;;25.25;23.75;;;;;;;;5025215;27;8858;-73
2022/10/19 07:51:15;;;;;;;;;23.75;22.25;;;;;;;;5027192;27;8840;-74
2022/10/19 07:53:43;;;;;;;;;20.00;18.50;;;;;;;;5029124;27;8907;-73
2022/10/19 07:56:14;;;;;;;;;23.00;22.25;;;;;;;;5024451;27;8840;-75
2022/10/19 07:58:42;;;;;;;;;20.50;18.75;;;;;;;;5021355;27;8841;-73
2022/10/19 08:01:12;;;;;;;;;25.50;23.00;;;;;;;;5021216;27;8833;-73
2022/10/19 08:03:40;;;;;;;;;18.75;18.75;;;;;;;;5023785;27;9006;-77
2022/10/19 08:06:10;;;;;;;;;27.50;24.50;;;;;;;;5016566;27;9691;-74
2022/10/19 08:08:38;;;;;;;;;23.25;21.75;;;;;;;;5030416;27;8844;-76
2022/10/19 08:11:09;;;;;;;;;24.50;23.25;;;;;;;;5033585;27;8942;-74
2022/10/19 08:13:38;;;;;;;;;28.75;25.00;;;;;;;;5019926;27;8893;-74
2022/10/19 08:16:06;;;;;;;;;23.25;23.25;;;;;;;;5018930;27;8850;-72
2022/10/19 08:18:34;;;;;;;;;25.75;23.50;;;;;;;;5028542;28;8845;-73
2022/10/19 08:21:03;;;;;;;;;25.00;24.00;;;;;;;;5035644;27;8844;-73
2022/10/19 08:23:30;;;;;;;;;23.00;21.75;;;;;;;;5021881;28;8910;-73
2022/10/19 08:25:58;;;;;;;;;23.25;22.00;;;;;;;;5041468;27;8890;-72
2022/10/19 08:28:25;;;;;;;;;16.25;16.25;;;;;;;;5041641;27;8841;-73
2022/10/19 08:30:57;;;;;;;;;21.50;17.75;;;;;;;;5037910;27;8869;-73
2022/10/19 08:33:25;;;;;;;;;22.25;21.00;;;;;;;;5018465;28;8952;-73
2022/10/19 08:35:53;;;;;;;;;26.75;23.25;;;;;;;;5033368;28;8984;-73
2022/10/19 08:38:21;;;;;;;;;20.50;19.50;;;;;;;;5040740;27;8861;-73
2022/10/19 08:40:48;;;;;;;;;25.00;24.00;;;;;;;;5015975;28;8912;-73
2022/10/19 08:43:20;;;;;;;;;16.00;13.50;;;;;;;;5024854;28;8840;-73
2022/10/19 08:45:55;;;;;;;;;23.75;22.25;;;;;;;;5031363;27;8859;-73
2022/10/19 08:48:29;;;;;;;;;21.75;17.75;;;;;;;;5019692;28;8841;-73
2022/10/19 08:50:57;;;;;;;;;27.25;23.00;;;;;;;;5033418;28;8812;-73
2022/10/19 08:53:32;;;;;;;;;25.75;25.00;;;;;;;;5021111;27;8871;-73
2022/10/19 08:56:10;;;;;;;;;23.25;18.00;;;;;;;;5032391;27;8954;-73
2022/10/19 08:58:54;;;;;;;;;27.50;25.50;;;;;;;;5038021;28;8834;-72
2022/10/19 09:01:34;;;;;;;;;20.75;19.50;;;;;;;;5044691;28;8860;-73
2022/10/19 09:04:04;;;;;;;;;20.00;18.50;;;;;;;;5036408;28;8883;-73
2022/10/19 09:06:37;;;;;;;;;20.00;18.25;;;;;;;;5029867;28;8870;-73
2022/10/19 09:09:06;;;;;;;;;27.00;24.50;;;;;;;;5032550;28;8867;-73
2022/10/19 09:11:35;;;;;;;;;26.00;23.50;;;;;;;;5056295;27;8842;-74
2022/10/19 09:14:06;;;;;;;;;16.75;16.75;;;;;;;;5042918;27;8847;-73
2022/10/19 09:16:36;;;;;;;;;18.75;18.75;;;;;;;;5048296;27;8861;-73
2022/10/19 09:19:04;;;;;;;;;20.50;20.50;;;;;;;;5066449;27;8862;-73
2022/10/19 09:21:39;;;;;;;;;17.75;14.50;;;;;;;;5060777;27;9004;-73
2022/10/19 09:24:11;;;;;;;;;18.00;15.00;;;;;;;;5042832;27;8817;-73
2022/10/19 09:26:52;;;;;;;;;16.75;16.75;;;;;;;;5044015;27;8867;-73
2022/10/19 09:29:27;;;;;;;;;18.75;16.75;;;;;;;;5064483;27;8848;-73
2022/10/19 09:32:01;;;;;;;;;22.25;20.50;;;;;;;;5046544;28;8842;-73
2022/10/19 09:34:33;;;;;;;;;17.25;17.25;;;;;;;;5060677;27;8836;-73
2022/10/19 09:37:01;;;;;;;;;16.25;16.25;;;;;;;;5053816;27;8920;-73
2022/10/19 09:39:30;;;;;;;;;16.75;16.00;;;;;;;;5043676;27;9630;-73
2022/10/19 09:42:00;;;;;;;;;21.75;19.75;;;;;;;;5059565;27;8884;-73
2022/10/19 09:44:28;;;;;;;;;17.50;17.50;;;;;;;;5053288;27;8836;-73
2022/10/19 09:47:06;;;;;;;;;18.25;17.00;;;;;;;;5040973;27;8842;-73
2022/10/19 09:49:41;;;;;;;;;15.75;15.75;;;;;;;;5065372;27;8848;-73
2022/10/19 09:52:24;;;;;;;;;16.25;12.00;;;;;;;;5043064;27;8836;-74
2022/10/19 09:55:00;;;;;;;;;13.00;13.00;;;;;;;;5043547;27;8833;-76
2022/10/19 09:57:27;;;;;;;;;19.25;17.75;;;;;;;;5042002;27;8942;-75
2022/10/19 09:59:55;;;;;;;;;16.50;14.75;;;;;;;;5060241;27;8832;-75
2022/10/19 10:02:31;;;;;;;;;17.75;16.00;;;;;;;;5046957;27;8859;-76
2022/10/19 10:05:05;;;;;;;;;16.00;14.25;;;;;;;;5042990;27;8873;-76
2022/10/19 10:07:35;;;;;;;;;18.75;17.25;;;;;;;;5050153;27;8858;-75
2022/10/19 10:10:08;;;;;;;;;13.00;12.00;;;;;;;;5036634;27;8865;-75
2022/10/19 10:12:36;;;;;;;;;15.50;12.25;;;;;;;;5041890;27;8856;-73
2022/10/19 10:15:05;;;;;;;;;16.75;16.50;;;;;;;;5046676;27;8885;-82
2022/10/19 10:17:36;;;;;;;;;9.00;9.00;;;;;;;;5056067;27;8840;-73
2022/10/19 10:20:17;;;;;;;;;14.00;14.00;;;;;;;;5053550;27;8837;-74
2022/10/19 10:22:55;;;;;;;;;16.75;15.75;;;;;;;;5048536;27;9171;-73
2022/10/19 10:25:26;;;;;;;;;16.75;14.00;;;;;;;;5042734;27;8920;-74
2022/10/19 10:27:59;;;;;;;;;14.75;12.25;;;;;;;;5045317;27;8912;-74
2022/10/19 10:30:29;;;;;;;;;11.75;11.75;;;;;;;;5063973;27;8820;-74
2022/10/19 10:32:59;;;;;;;;;13.50;13.00;;;;;;;;5034792;27;8826;-75
2022/10/19 10:35:31;;;;;;;;;17.00;13.25;;;;;;;;5062470;27;8853;-74
2022/10/19 10:38:08;;;;;;;;;11.00;11.00;;;;;;;;5060837;27;8867;-75
2022/10/19 10:40:36;;;;;;;;;11.00;11.00;;;;;;;;5053425;27;8833;-74
2022/10/19 10:43:06;;;;;;;;;10.25;10.25;;;;;;;;5066685;27;8963;-74
2022/10/19 10:45:38;;;;;;;;;11.00;11.00;;;;;;;;5054951;27;8836;-75
2022/10/19 10:48:19;;;;;;;;;13.20;11.40;;;;;;;;5037197;27;9574;-74
2022/10/19 10:50:47;;;;;;;;;11.00;11.00;;;;;;;;5052443;27;8835;-75
2022/10/19 10:53:36;;;;;;;;;14.60;10.40;;;;;;;;5044985;27;8860;-74
2022/10/19 10:56:06;;;;;;;;;10.20;10.20;;;;;;;;5047553;27;8841;-74
2022/10/19 10:58:43;;;;;;;;;9.00;9.00;;;;;;;;5071176;27;8869;-75
2022/10/19 11:01:18;;;;;;;;;11.20;10.20;;;;;;;;5042856;27;8836;-74
2022/10/19 11:03:53;;;;;;;;;12.00;9.20;;;;;;;;5053715;27;8828;-74
2022/10/19 11:06:21;;;;;;;;;12.00;11.20;;;;;;;;5066698;27;9590;-75
2022/10/19 11:08:55;;;;;;;;;10.60;9.20;;;;;;;;5062336;27;8962;-75
2022/10/19 11:11:26;;;;;;;;;10.00;10.00;;;;;;;;5045014;28;8836;-75
2022/10/19 11:13:58;;;;;;;;;8.60;8.60;;;;;;;;5035016;27;8842;-75
2022/10/19 11:16:29;;;;;;;;;9.00;9.00;;;;;;;;5041924;27;8959;-74
2022/10/19 11:19:02;;;;;;;;;8.20;7.80;;;;;;;;5026748;27;8894;-75
2022/10/19 11:21:34;;;;;;;;;8.60;8.60;;;;;;;;5051632;27;8837;-75
2022/10/19 11:24:08;;;;;;;;;8.60;7.20;;;;;;;;5039545;27;8873;-75
2022/10/19 11:26:45;;;;;;;;;8.00;8.00;;;;;;;;5053264;27;8818;-75
2022/10/19 11:29:23;;;;;;;;;8.00;8.00;;;;;;;;5035050;28;8878;-75
2022/10/19 11:31:54;;;;;;;;;9.60;8.80;;;;;;;;5055022;28;8811;-75
2022/10/19 11:34:43;;;;;;;;;7.80;7.80;;;;;;;;5036478;27;8972;-75
2022/10/19 11:37:20;;;;;;;;;8.00;8.00;;;;;;;;5052181;27;8830;-74
2022/10/19 11:39:58;;;;;;;;;7.40;7.00;;;;;;;;5038021;27;8953;-74
2022/10/19 11:42:40;;;;;;;;;7.60;7.60;;;;;;;;5038914;27;8932;-75
2022/10/19 11:45:17;;;;;;;;;8.80;8.80;;;;;;;;5003114;27;8820;-75
2022/10/19 11:47:58;;;;;;;;;7.40;7.40;;;;;;;;5029894;27;8932;-74
2022/10/19 11:50:34;;;;;;;;;8.00;8.00;;;;;;;;5033614;27;8828;-74
2022/10/19 11:53:12;;;;;;;;;7.40;7.40;;;;;;;;5031632;27;8886;-75
2022/10/19 11:55:45;;;;;;;;;6.60;6.60;;;;;;;;5036785;28;8947;-74
2022/10/19 11:58:37;;;;;;;;;8.00;8.00;;;;;;;;5027959;28;8891;-75
2022/10/19 12:01:15;;;;;;;;;10.00;8.80;;;;;;;;5046884;27;8818;-74
2022/10/19 12:04:10;;;;;;;;;8.60;8.00;;;;;;;;5045184;27;8848;-75
2022/10/19 12:06:45;;;;;;;;;8.20;8.20;;;;;;;;5049923;27;8856;-74
2022/10/19 12:09:26;;;;;;;;;8.40;7.20;;;;;;;;5005152;28;8896;-75
2022/10/19 12:12:22;;;;;;;;;8.40;7.60;;;;;;;;5062793;27;8859;-75
2022/10/19 12:14:52;;;;;;;;;9.00;9.00;;;;;;;;5059090;27;8833;-75
2022/10/19 12:17:24;;;;;;;;;7.00;7.00;;;;;;;;5032536;27;8864;-75
2022/10/19 12:19:56;;;;;;;;;9.60;8.00;;;;;;;;5042965;27;8858;-75
2022/10/19 12:22:28;;;;;;;;;7.00;7.00;;;;;;;;5057981;27;8845;-75
2022/10/19 12:24:58;;;;;;;;;12.00;8.80;;;;;;;;5016310;27;8823;-76
2022/10/19 12:27:32;;;;;;;;;7.00;7.00;;;;;;;;5050940;27;8816;-76
2022/10/19 12:30:04;;;;;;;;;7.00;7.00;;;;;;;;5058736;27;8832;-75
2022/10/19 12:32:39;;;;;;;;;9.40;8.00;;;;;;;;5062420;27;8854;-75
2022/10/19 12:35:16;;;;;;;;;8.40;8.40;;;;;;;;5052411;27;8971;-75
2022/10/19 12:37:50;;;;;;;;;8.40;8.40;;;;;;;;5040937;27;8862;-78
2022/10/19 12:40:23;;;;;;;;;8.00;8.00;;;;;;;;5032123;27;9779;-75
2022/10/19 12:42:54;;;;;;;;;6.80;6.80;;;;;;;;5062277;27;8862;-78
2022/10/19 12:45:29;;;;;;;;;7.20;7.20;;;;;;;;5050173;27;8836;-75
2022/10/19 12:48:17;;;;;;;;;6.00;6.00;;;;;;;;5016902;28;8972;-76
2022/10/19 12:51:10;;;;;;;;;7.00;7.00;;;;;;;;5029736;27;8863;-76
2022/10/19 12:53:43;;;;;;;;;6.60;6.60;;;;;;;;5036694;27;8841;-76
2022/10/19 12:56:23;;;;;;;;;4.00;4.00;;;;;;;;5034064;27;8843;-76
2022/10/19 12:58:56;;;;;;;;;6.60;6.60;;;;;;;;5128882;27;9256;-76
2022/10/19 13:01:25;;;;;;;;;4.60;4.60;;;;;;;;5026232;27;8864;-76
2022/10/19 13:04:06;;;;;;;;;4.80;4.80;;;;;;;;5064805;27;9613;-76
2022/10/19 13:06:35;;;;;;;;;7.00;7.00;;;;;;;;5056411;27;8832;-76
2022/10/19 13:09:06;;;;;;;;;8.00;7.00;;;;;;;;5031652;27;9120;-76
2022/10/19 13:11:34;;;;;;;;;5.60;5.60;;;;;;;;5037248;27;8837;-76
2022/10/19 13:14:05;;;;;;;;;6.20;6.20;;;;;;;;5048356;27;8846;-76
2022/10/19 13:17:01;;;;;;;;;7.00;7.00;;;;;;;;5017272;28;8868;-76
2022/10/19 13:19:29;;;;;;;;;6.40;6.40;;;;;;;;5041506;27;8834;-76
2022/10/19 13:22:27;;;;;;;;;5.00;3.80;;;;;;;;5023024;28;8903;-76
2022/10/19 13:25:25;;;;;;;;;6.20;6.20;;;;;;;;5026649;27;8850;-76
2022/10/19 13:27:54;;;;;;;;;8.00;6.20;;;;;;;;5006344;27;8865;-76
2022/10/19 13:30:57;;;;;;;;;6.00;6.00;;;;;;;;5035847;27;8863;-76
2022/10/19 13:33:52;;;;;;;;;9.60;9.60;;;;;;;;5034021;27;8884;-76
2022/10/19 13:36:21;;;;;;;;;8.80;8.80;;;;;;;;5025286;27;8870;-77
2022/10/19 13:39:04;;;;;;;;;10.20;10.20;;;;;;;;5023619;27;8882;-76
2022/10/19 13:41:51;;;;;;;;;10.60;10.60;;;;;;;;5030895;27;8918;-77
2022/10/19 13:44:23;;;;;;;;;12.20;9.60;;;;;;;;5043176;27;8838;-77
2022/10/19 13:47:33;;;;;;;;;7.60;7.60;;;;;;;;5035064;27;8836;-76
2022/10/19 13:50:23;;;;;;;;;10.80;8.80;;;;;;;;5030886;27;8855;-76
2022/10/19 13:53:18;;;;;;;;;8.60;7.40;;;;;;;;5048594;27;9697;-76
2022/10/19 13:56:10;;;;;;;;;8.60;8.60;;;;;;;;5017944;27;8854;-76
2022/10/19 13:59:07;;;;;;;;;9.40;8.20;;;;;;;;5032540;27;8846;-77
2022/10/19 14:01:50;;;;;;;;;9.20;9.20;;;;;;;;5056823;27;8837;-77
2022/10/19 14:04:26;;;;;;;;;14.00;11.60;;;;;;;;5031695;27;9746;-77
2022/10/19 14:06:56;;;;;;;;;8.80;8.80;;;;;;;;5003054;28;8895;-76
2022/10/19 14:09:52;;;;;;;;;8.20;8.20;;;;;;;;5030524;27;8865;-77
2022/10/19 14:12:24;;;;;;;;;10.00;10.00;;;;;;;;5010336;28;8869;-76
2022/10/19 14:14:53;;;;;;;;;6.00;6.00;;;;;;;;5017488;27;8879;-76
2022/10/19 14:17:24;;;;;;;;;7.60;7.60;;;;;;;;5033589;27;8973;-77
2022/10/19 14:19:54;;;;;;;;;7.00;7.00;;;;;;;;5042892;27;8831;-78
2022/10/19 14:22:25;;;;;;;;;9.40;8.60;;;;;;;;5027114;27;8911;-77
2022/10/19 14:24:59;;;;;;;;;9.00;9.00;;;;;;;;5031146;27;8823;-77
2022/10/19 14:27:26;;;;;;;;;11.00;9.40;;;;;;;;5048624;27;8997;-77
2022/10/19 14:29:56;;;;;;;;;10.60;8.00;;;;;;;;5121870;27;8865;-77
2022/10/19 14:32:25;;;;;;;;;7.00;7.00;;;;;;;;5023596;27;9650;-76
2022/10/19 14:34:54;;;;;;;;;8.20;8.20;;;;;;;;5036769;27;8841;-76
2022/10/19 14:37:22;;;;;;;;;4.20;4.20;;;;;;;;5031690;27;8843;-76
2022/10/19 14:40:05;;;;;;;;;8.40;8.40;;;;;;;;5023003;27;9307;-75
2022/10/19 14:42:38;;;;;;;;;8.00;8.00;;;;;;;;5032483;27;8971;-76
2022/10/19 14:45:13;;;;;;;;;7.20;7.20;;;;;;;;5021618;27;8860;-75
2022/10/19 14:47:52;;;;;;;;;11.00;8.40;;;;;;;;5013032;27;8847;-75
2022/10/19 14:50:21;;;;;;;;;10.80;7.20;;;;;;;;5017431;28;8898;-75
2022/10/19 14:52:52;;;;;;;;;7.00;7.00;;;;;;;;5022222;27;8853;-75
2022/10/19 14:55:22;;;;;;;;;9.60;8.40;;;;;;;;5019537;28;9618;-75
2022/10/19 14:57:51;;;;;;;;;10.00;10.00;;;;;;;;5026094;27;8861;-76
2022/10/19 15:00:22;;;;;;;;;7.00;7.00;;;;;;;;5040709;27;8826;-75
2022/10/19 15:02:57;;;;;;;;;11.80;8.80;;;;;;;;5046780;27;8833;-76
2022/10/19 15:05:28;;;;;;;;;6.60;5.00;;;;;;;;5026011;27;8806;-75